sensor_id;sensor_type;location;lat;lon;timestamp;temperature;humidity
19864;DHT22;10094;48.820;9.226;2022-11-15T00:04:41;10.10;99.90
19864;DHT22;10094;48.820;9.226;2022-11-15T00:11:42;10.10;99.90
19864;DHT22;10094;48.820;9.226;2022-11-15T00:18:43;10.00;99.90
19864;DHT22;10094;48.820;9.226;2022-11-15T00:25:57;10.00;99.90
19864;DHT22;10094;48.820;9.226;2022-11-15T00:33:05;9.90;99.90
19864;DHT22;10094;48.820;9.226;2022-11-15T00:40:07;9.90;99.90
19864;DHT22;10094;48.820;9.226;2022-11-15T00:47:08;9.90;99.90
19864;DHT22;10094;48.820;9.226;2022-11-15T00:54:09;10.00;99.90
19864;DHT22;10094;48.820;9.226;2022-11-15T01:01:12;10.00;99.90
19864;DHT22;10094;48.820;9.226;2022-11-15T01:08:15;9.90;99.90
19864;DHT22;10094;48.820;9.226;2022-11-15T01:15:16;9.70;99.90
19864;DHT22;10094;48.820;9.226;2022-11-15T01:22:18;9.60;99.90
19864;DHT22;10094;48.820;9.226;2022-11-15T01:29:19;9.60;99.90
19864;DHT22;10094;48.820;9.226;2022-11-15T01:36:21;9.50;99.90
19864;DHT22;10094;48.820;9.226;2022-11-15T01:43:26;9.40;99.90
19864;DHT22;10094;48.820;9.226;2022-11-15T01:50:30;9.10;99.90
19864;DHT22;10094;48.820;9.226;2022-11-15T01:57:32;8.80;99.90
19864;DHT22;10094;48.820;9.226;2022-11-15T02:04:39;8.70;99.90
19864;DHT22;10094;48.820;9.226;2022-11-15T02:11:41;8.60;99.90
19864;DHT22;10094;48.820;9.226;2022-11-15T02:19:03;8.50;99.90
19864;DHT22;10094;48.820;9.226;2022-11-15T02:26:48;8.50;99.90
19864;DHT22;10094;48.820;9.226;2022-11-15T02:34:17;8.70;99.90
19864;DHT22;10094;48.820;9.226;2022-11-15T02:41:35;8.70;99.90
19864;DHT22;10094;48.820;9.226;2022-11-15T02:48:39;8.70;99.90
19864;DHT22;10094;48.820;9.226;2022-11-15T02:55:44;8.80;99.90
19864;DHT22;10094;48.820;9.226;2022-11-15T03:03:18;8.70;99.90
19864;DHT22;10094;48.820;9.226;2022-11-15T03:17:38;8.60;99.90
19864;DHT22;10094;48.820;9.226;2022-11-15T03:24:43;8.50;99.90
19864;DHT22;10094;48.820;9.226;2022-11-15T03:31:48;8.40;99.90
19864;DHT22;10094;48.820;9.226;2022-11-15T03:38:54;8.20;99.90
19864;DHT22;10094;48.820;9.226;2022-11-15T03:46:04;8.10;99.90
19864;DHT22;10094;48.820;9.226;2022-11-15T03:53:07;8.10;99.90
19864;DHT22;10094;48.820;9.226;2022-11-15T04:00:09;8.10;99.90
19864;DHT22;10094;48.820;9.226;2022-11-15T04:07:10;8.20;99.90
19864;DHT22;10094;48.820;9.226;2022-11-15T04:14:12;8.10;99.90
19864;DHT22;10094;48.820;9.226;2022-11-15T04:21:13;8.20;99.90
19864;DHT22;10094;48.820;9.226;2022-11-15T04:28:33;8.20;99.90
19864;DHT22;10094;48.820;9.226;2022-11-15T04:35:34;8.10;99.90
19864;DHT22;10094;48.820;9.226;2022-11-15T04:42:35;8.10;99.90
19864;DHT22;10094;48.820;9.226;2022-11-15T04:49:36;8.10;99.90
19864;DHT22;10094;48.820;9.226;2022-11-15T04:56:37;8.20;99.90
19864;DHT22;10094;48.820;9.226;2022-11-15T05:03:38;8.10;99.90
19864;DHT22;10094;48.820;9.226;2022-11-15T05:10:58;8.00;99.90
19864;DHT22;10094;48.820;9.226;2022-11-15T05:17:59;8.00;99.90
19864;DHT22;10094;48.820;9.226;2022-11-15T05:25:04;7.90;99.90
19864;DHT22;10094;48.820;9.226;2022-11-15T05:32:05;8.00;99.90
19864;DHT22;10094;48.820;9.226;2022-11-15T05:39:07;7.90;99.90
19864;DHT22;10094;48.820;9.226;2022-11-15T05:46:09;7.80;99.90
19864;DHT22;10094;48.820;9.226;2022-11-15T05:53:13;7.80;99.90
19864;DHT22;10094;48.820;9.226;2022-11-15T06:00:15;7.90;99.90
19864;DHT22;10094;48.820;9.226;2022-11-15T06:07:16;8.00;99.90
19864;DHT22;10094;48.820;9.226;2022-11-15T06:14:17;8.00;99.90
19864;DHT22;10094;48.820;9.226;2022-11-15T06:21:18;8.00;99.90
19864;DHT22;10094;48.820;9.226;2022-11-15T06:28:19;8.20;99.90
19864;DHT22;10094;48.820;9.226;2022-11-15T06:35:21;8.20;99.90
19864;DHT22;10094;48.820;9.226;2022-11-15T06:42:22;8.20;99.90
19864;DHT22;10094;48.820;9.226;2022-11-15T06:49:23;8.20;99.90
19864;DHT22;10094;48.820;9.226;2022-11-15T06:56:24;8.20;99.90
19864;DHT22;10094;48.820;9.226;2022-11-15T07:03:25;8.20;99.90
19864;DHT22;10094;48.820;9.226;2022-11-15T07:10:27;8.20;99.90
19864;DHT22;10094;48.820;9.226;2022-11-15T07:17:28;8.30;99.90
19864;DHT22;10094;48.820;9.226;2022-11-15T07:24:29;8.50;99.90
19864;DHT22;10094;48.820;9.226;2022-11-15T07:31:30;8.70;99.90
19864;DHT22;10094;48.820;9.226;2022-11-15T07:38:32;9.00;99.90
19864;DHT22;10094;48.820;9.226;2022-11-15T07:45:44;9.50;99.90
19864;DHT22;10094;48.820;9.226;2022-11-15T07:52:46;11.40;99.90
19864;DHT22;10094;48.820;9.226;2022-11-15T07:59:47;13.10;99.90
19864;DHT22;10094;48.820;9.226;2022-11-15T08:06:48;13.90;99.90
19864;DHT22;10094;48.820;9.226;2022-11-15T08:13:49;13.80;99.90
19864;DHT22;10094;48.820;9.226;2022-11-15T08:20:50;13.80;99.90
19864;DHT22;10094;48.820;9.226;2022-11-15T08:27:57;15.50;99.90
19864;DHT22;10094;48.820;9.226;2022-11-15T08:34:58;15.50;99.90
19864;DHT22;10094;48.820;9.226;2022-11-15T08:41:59;14.40;99.90
19864;DHT22;10094;48.820;9.226;2022-11-15T08:49:00;17.70;99.60
19864;DHT22;10094;48.820;9.226;2022-11-15T09:03:06;19.40;95.10
19864;DHT22;10094;48.820;9.226;2022-11-15T09:10:08;18.80;96.20
19864;DHT22;10094;48.820;9.226;2022-11-15T09:17:10;19.90;93.70
19864;DHT22;10094;48.820;9.226;2022-11-15T09:24:11;21.00;93.60
19864;DHT22;10094;48.820;9.226;2022-11-15T09:31:12;19.80;94.30
19864;DHT22;10094;48.820;9.226;2022-11-15T09:38:20;19.90;93.20
19864;DHT22;10094;48.820;9.226;2022-11-15T09:52:44;19.40;93.40
19864;DHT22;10094;48.820;9.226;2022-11-15T10:14:13;19.40;93.00
19864;DHT22;10094;48.820;9.226;2022-11-15T10:21:00;18.20;96.20
19864;DHT22;10094;48.820;9.226;2022-11-15T10:27:55;17.40;97.30
19864;DHT22;10094;48.820;9.226;2022-11-15T10:34:38;16.50;99.90
19864;DHT22;10094;48.820;9.226;2022-11-15T10:55:05;15.90;99.90
19864;DHT22;10094;48.820;9.226;2022-11-15T11:01:48;16.20;99.90
19864;DHT22;10094;48.820;9.226;2022-11-15T11:08:31;16.50;99.90
19864;DHT22;10094;48.820;9.226;2022-11-15T11:15:15;16.40;99.90
19864;DHT22;10094;48.820;9.226;2022-11-15T11:29:12;15.50;99.90
19864;DHT22;10094;48.820;9.226;2022-11-15T11:43:38;15.60;99.90
19864;DHT22;10094;48.820;9.226;2022-11-15T11:50:25;16.20;99.90
19864;DHT22;10094;48.820;9.226;2022-11-15T12:04:27;16.30;99.90
19864;DHT22;10094;48.820;9.226;2022-11-15T12:11:20;16.40;99.90
19864;DHT22;10094;48.820;9.226;2022-11-15T12:18:04;16.40;99.90
19864;DHT22;10094;48.820;9.226;2022-11-15T12:25:04;16.30;99.90
19864;DHT22;10094;48.820;9.226;2022-11-15T12:31:51;16.00;99.90
19864;DHT22;10094;48.820;9.226;2022-11-15T12:45:39;16.00;99.90
19864;DHT22;10094;48.820;9.226;2022-11-15T12:52:22;15.90;99.90
19864;DHT22;10094;48.820;9.226;2022-11-15T12:59:06;15.90;99.90
19864;DHT22;10094;48.820;9.226;2022-11-15T13:05:57;15.70;99.90
19864;DHT22;10094;48.820;9.226;2022-11-15T13:19:28;15.60;99.90
19864;DHT22;10094;48.820;9.226;2022-11-15T13:26:14;15.70;99.90
19864;DHT22;10094;48.820;9.226;2022-11-15T13:33:05;15.50;99.90
19864;DHT22;10094;48.820;9.226;2022-11-15T13:39:50;15.60;99.90
19864;DHT22;10094;48.820;9.226;2022-11-15T13:46:33;15.50;99.90
19864;DHT22;10094;48.820;9.226;2022-11-15T13:53:15;15.30;99.90
19864;DHT22;10094;48.820;9.226;2022-11-15T14:00:02;15.20;99.90
19864;DHT22;10094;48.820;9.226;2022-11-15T14:06:58;15.20;99.90
19864;DHT22;10094;48.820;9.226;2022-11-15T14:13:42;15.10;99.90
19864;DHT22;10094;48.820;9.226;2022-11-15T14:20:34;15.00;99.90
19864;DHT22;10094;48.820;9.226;2022-11-15T14:34:03;14.70;99.90
19864;DHT22;10094;48.820;9.226;2022-11-15T14:40:45;14.50;99.90
19864;DHT22;10094;48.820;9.226;2022-11-15T14:47:28;14.30;99.90
19864;DHT22;10094;48.820;9.226;2022-11-15T14:54:10;14.30;99.90
19864;DHT22;10094;48.820;9.226;2022-11-15T15:00:53;14.40;99.90
19864;DHT22;10094;48.820;9.226;2022-11-15T15:07:35;14.30;99.90
19864;DHT22;10094;48.820;9.226;2022-11-15T15:14:18;14.20;99.90
19864;DHT22;10094;48.820;9.226;2022-11-15T15:21:00;14.10;99.90
19864;DHT22;10094;48.820;9.226;2022-11-15T15:27:49;13.90;99.90
19864;DHT22;10094;48.820;9.226;2022-11-15T15:34:32;13.80;99.90
19864;DHT22;10094;48.820;9.226;2022-11-15T15:41:51;13.80;99.90
19864;DHT22;10094;48.820;9.226;2022-11-15T15:48:38;13.70;99.90
19864;DHT22;10094;48.820;9.226;2022-11-15T15:55:22;13.60;99.90
19864;DHT22;10094;48.820;9.226;2022-11-15T16:02:04;13.50;99.90
19864;DHT22;10094;48.820;9.226;2022-11-15T16:09:05;13.50;99.90
19864;DHT22;10094;48.820;9.226;2022-11-15T16:15:57;13.40;99.90
19864;DHT22;10094;48.820;9.226;2022-11-15T16:22:39;13.20;99.90
19864;DHT22;10094;48.820;9.226;2022-11-15T16:29:22;13.30;99.90
19864;DHT22;10094;48.820;9.226;2022-11-15T16:36:10;13.30;99.90
19864;DHT22;10094;48.820;9.226;2022-11-15T16:42:54;13.30;99.90
19864;DHT22;10094;48.820;9.226;2022-11-15T16:49:37;13.30;99.90
19864;DHT22;10094;48.820;9.226;2022-11-15T16:56:29;13.40;99.90
19864;DHT22;10094;48.820;9.226;2022-11-15T17:03:12;13.20;99.90
19864;DHT22;10094;48.820;9.226;2022-11-15T17:09:54;13.20;99.90
19864;DHT22;10094;48.820;9.226;2022-11-15T17:16:37;13.30;99.90
19864;DHT22;10094;48.820;9.226;2022-11-15T17:23:23;13.10;99.90
19864;DHT22;10094;48.820;9.226;2022-11-15T17:30:06;13.10;99.90
19864;DHT22;10094;48.820;9.226;2022-11-15T17:36:49;13.20;99.90
19864;DHT22;10094;48.820;9.226;2022-11-15T17:43:33;13.10;99.90
19864;DHT22;10094;48.820;9.226;2022-11-15T17:50:16;13.00;99.90
19864;DHT22;10094;48.820;9.226;2022-11-15T17:56:59;13.00;99.90
19864;DHT22;10094;48.820;9.226;2022-11-15T18:03:41;13.00;99.90
19864;DHT22;10094;48.820;9.226;2022-11-15T18:10:23;12.90;99.90
19864;DHT22;10094;48.820;9.226;2022-11-15T18:17:06;12.90;99.90
19864;DHT22;10094;48.820;9.226;2022-11-15T18:23:52;12.90;99.90
19864;DHT22;10094;48.820;9.226;2022-11-15T18:30:37;13.00;99.90
19864;DHT22;10094;48.820;9.226;2022-11-15T18:37:19;13.00;99.90
19864;DHT22;10094;48.820;9.226;2022-11-15T18:44:02;13.10;99.90
19864;DHT22;10094;48.820;9.226;2022-11-15T18:50:44;13.10;99.90
19864;DHT22;10094;48.820;9.226;2022-11-15T18:57:27;13.30;99.90
19864;DHT22;10094;48.820;9.226;2022-11-15T19:04:10;13.30;99.90
19864;DHT22;10094;48.820;9.226;2022-11-15T19:10:53;13.30;99.90
19864;DHT22;10094;48.820;9.226;2022-11-15T19:17:35;13.30;99.90
19864;DHT22;10094;48.820;9.226;2022-11-15T19:24:18;13.20;99.90
19864;DHT22;10094;48.820;9.226;2022-11-15T19:31:13;13.10;99.90
19864;DHT22;10094;48.820;9.226;2022-11-15T19:37:59;12.80;99.90
19864;DHT22;10094;48.820;9.226;2022-11-15T19:44:41;12.90;99.90
19864;DHT22;10094;48.820;9.226;2022-11-15T19:51:30;12.90;99.90
19864;DHT22;10094;48.820;9.226;2022-11-15T19:58:13;12.80;99.90
19864;DHT22;10094;48.820;9.226;2022-11-15T20:04:56;12.80;99.90
19864;DHT22;10094;48.820;9.226;2022-11-15T20:11:38;12.90;99.90
19864;DHT22;10094;48.820;9.226;2022-11-15T20:18:21;12.70;99.90
19864;DHT22;10094;48.820;9.226;2022-11-15T20:25:04;12.60;99.90
19864;DHT22;10094;48.820;9.226;2022-11-15T20:31:47;12.50;99.90
19864;DHT22;10094;48.820;9.226;2022-11-15T20:38:29;12.40;99.90
19864;DHT22;10094;48.820;9.226;2022-11-15T20:45:12;12.30;99.90
19864;DHT22;10094;48.820;9.226;2022-11-15T20:51:54;12.30;99.90
19864;DHT22;10094;48.820;9.226;2022-11-15T20:58:37;12.10;99.90
19864;DHT22;10094;48.820;9.226;2022-11-15T21:05:19;11.90;99.90
19864;DHT22;10094;48.820;9.226;2022-11-15T21:12:03;12.00;99.90
19864;DHT22;10094;48.820;9.226;2022-11-15T21:18:54;12.10;99.90
19864;DHT22;10094;48.820;9.226;2022-11-15T21:25:37;12.20;99.90
19864;DHT22;10094;48.820;9.226;2022-11-15T21:32:19;12.40;99.90
19864;DHT22;10094;48.820;9.226;2022-11-15T21:39:02;12.40;99.90
19864;DHT22;10094;48.820;9.226;2022-11-15T21:45:55;12.20;99.90
19864;DHT22;10094;48.820;9.226;2022-11-15T21:52:37;12.20;99.90
19864;DHT22;10094;48.820;9.226;2022-11-15T21:59:20;12.20;99.90
19864;DHT22;10094;48.820;9.226;2022-11-15T22:06:02;12.00;99.90
19864;DHT22;10094;48.820;9.226;2022-11-15T22:12:45;11.80;99.90
19864;DHT22;10094;48.820;9.226;2022-11-15T22:19:27;11.70;99.90
19864;DHT22;10094;48.820;9.226;2022-11-15T22:26:15;11.90;99.90
19864;DHT22;10094;48.820;9.226;2022-11-15T22:33:04;12.10;99.90
19864;DHT22;10094;48.820;9.226;2022-11-15T22:39:47;11.90;99.90
19864;DHT22;10094;48.820;9.226;2022-11-15T22:46:29;11.80;99.90
19864;DHT22;10094;48.820;9.226;2022-11-15T22:53:12;12.10;99.90
19864;DHT22;10094;48.820;9.226;2022-11-15T22:59:54;12.10;99.90
19864;DHT22;10094;48.820;9.226;2022-11-15T23:06:37;12.20;99.90
19864;DHT22;10094;48.820;9.226;2022-11-15T23:13:19;12.10;99.90
19864;DHT22;10094;48.820;9.226;2022-11-15T23:20:01;11.80;99.90
19864;DHT22;10094;48.820;9.226;2022-11-15T23:27:06;11.90;99.90
19864;DHT22;10094;48.820;9.226;2022-11-15T23:33:48;12.00;99.90
19864;DHT22;10094;48.820;9.226;2022-11-15T23:40:40;11.90;99.90
19864;DHT22;10094;48.820;9.226;2022-11-15T23:47:22;11.90;99.90
19864;DHT22;10094;48.820;9.226;2022-11-15T23:54:05;11.90;99.90
